Time;durP1;ratioP1;P1;durP2;ratioP2;P2;SDS_P1;SDS_P2;PMS_P1;PMS_P2;Temp;Humidity;BMP_temperature;BMP_pressure;BME280_temperature;BME280_humidity;BME280_pressure;Samples;Min_cycle;Max_cycle;Signal;HPM_P1;HPM_P2
2021/10/10 00:01:06;;;;;;;29.30;14.30;;;6.20;99.90;;;;;;5053564;28;19917;-61
2021/10/10 00:03:31;;;;;;;;;;;6.20;99.90;;;;;;5063646;28;20452;-62
2021/10/10 00:05:57;;;;;;;21.63;12.25;;;6.20;99.90;;;;;;5062174;28;19943;-60
2021/10/10 00:08:22;;;;;;;;;;;6.20;99.90;;;;;;5064085;28;20040;-62
2021/10/10 00:10:48;;;;;;;21.02;10.90;;;6.30;99.90;;;;;;5063352;28;20373;-62
2021/10/10 00:13:14;;;;;;;25.98;11.18;;;6.30;99.90;;;;;;5061896;28;20087;-62
2021/10/10 00:15:39;;;;;;;;;;;6.30;99.90;;;;;;5062761;28;20048;-61
2021/10/10 00:18:06;;;;;;;20.67;11.25;;;6.20;99.90;;;;;;5054013;28;19920;-61
2021/10/10 00:20:31;;;;;;;21.90;11.05;;;6.30;99.90;;;;;;5049862;28;20060;-62
2021/10/10 00:22:57;;;;;;;;;;;6.30;99.90;;;;;;5049730;28;20036;-62
2021/10/10 00:25:22;;;;;;;19.88;10.68;;;6.30;99.90;;;;;;5049958;28;19917;-63
2021/10/10 00:27:48;;;;;;;;;;;6.30;99.90;;;;;;5049640;28;20289;-61
2021/10/10 00:30:14;;;;;;;21.92;10.27;;;6.30;99.90;;;;;;5047771;28;19917;-62
2021/10/10 00:32:40;;;;;;;23.05;11.68;;;6.30;99.90;;;;;;5049237;28;20110;-62
2021/10/10 00:35:06;;;;;;;23.05;10.95;;;6.30;99.90;;;;;;5049526;28;20047;-63
2021/10/10 00:37:31;;;;;;;20.08;11.02;;;6.30;99.90;;;;;;5049443;28;20059;-62
2021/10/10 00:39:57;;;;;;;;;;;6.30;99.90;;;;;;5050446;28;20497;-61
2021/10/10 00:42:22;;;;;;;22.55;11.27;;;6.20;99.90;;;;;;5048083;28;19924;-62
2021/10/10 00:44:49;;;;;;;19.30;11.13;;;6.10;99.90;;;;;;5047789;28;20782;-62
2021/10/10 00:47:16;;;;;;;21.35;10.43;;;6.00;99.90;;;;;;5048321;28;20106;-62
2021/10/10 00:49:42;;;;;;;26.95;11.43;;;6.10;99.90;;;;;;5048765;28;20051;-61
2021/10/10 00:52:10;;;;;;;20.73;10.75;;;6.00;99.90;;;;;;5048521;28;20041;-62
2021/10/10 00:54:39;;;;;;;28.92;11.00;;;6.00;99.90;;;;;;5048892;28;20068;-62
2021/10/10 00:57:05;;;;;;;25.80;10.68;;;5.90;99.90;;;;;;5049327;28;20570;-61
2021/10/10 00:59:34;;;;;;;24.23;10.70;;;5.90;99.90;;;;;;5042811;28;20056;-61
2021/10/10 01:01:59;;;;;;;21.95;9.40;;;5.80;99.90;;;;;;5043692;28;20120;-61
2021/10/10 01:04:25;;;;;;;;;;;5.90;99.90;;;;;;5048674;28;20116;-58
2021/10/10 01:06:50;;;;;;;27.73;10.13;;;5.90;99.90;;;;;;5049202;28;20015;-61
2021/10/10 01:09:16;;;;;;;;;;;5.80;99.90;;;;;;5049928;28;20543;-60
2021/10/10 01:11:42;;;;;;;29.08;9.55;;;5.70;99.90;;;;;;5047710;28;19920;-60
2021/10/10 01:14:10;;;;;;;20.98;10.30;;;5.70;99.90;;;;;;5047624;28;20051;-60
2021/10/10 01:16:36;;;;;;;19.60;9.85;;;5.70;99.90;;;;;;5047971;28;20114;-59
2021/10/10 01:19:01;;;;;;;;;;;5.60;99.90;;;;;;5049462;28;20044;-61
2021/10/10 01:21:27;;;;;;;16.08;8.35;;;5.70;99.90;;;;;;5048699;28;19923;-61
2021/10/10 01:23:52;;;;;;;;;;;5.80;99.90;;;;;;5048573;28;20037;-61
2021/10/10 01:26:19;;;;;;;19.10;10.00;;;5.80;99.90;;;;;;5048343;28;19931;-60
2021/10/10 01:28:45;;;;;;;18.60;9.40;;;5.70;99.90;;;;;;5046705;28;20052;-62
2021/10/10 01:31:11;;;;;;;17.33;9.95;;;5.70;99.90;;;;;;5038351;28;20032;-61
2021/10/10 01:33:37;;;;;;;;;;;5.70;99.90;;;;;;5049496;28;20041;-59
2021/10/10 01:36:03;;;;;;;16.42;9.13;;;5.70;99.90;;;;;;5048912;28;20335;-61
2021/10/10 01:38:28;;;;;;;14.82;8.95;;;5.70;99.90;;;;;;5064322;28;20044;-60
2021/10/10 01:40:54;;;;;;;;;;;5.70;99.90;;;;;;5048985;28;20037;-61
2021/10/10 01:43:19;;;;;;;23.80;11.02;;;5.60;99.90;;;;;;5045371;28;20292;-61
2021/10/10 01:45:46;;;;;;;17.70;8.90;;;5.60;99.90;;;;;;5048091;28;20591;-60
2021/10/10 01:48:11;;;;;;;16.05;8.65;;;5.50;99.90;;;;;;5048728;28;20131;-61
2021/10/10 01:50:37;;;;;;;;;;;5.40;99.90;;;;;;5048632;28;20131;-61
2021/10/10 01:53:03;;;;;;;25.42;9.85;;;5.40;99.90;;;;;;5049269;28;19917;-60
2021/10/10 01:55:29;;;;;;;22.10;10.30;;;5.40;99.90;;;;;;5047926;28;20116;-60
2021/10/10 01:57:55;;;;;;;;;;;5.30;99.90;;;;;;5047928;28;20041;-61
2021/10/10 02:00:21;;;;;;;20.52;9.40;;;5.20;99.90;;;;;;5044123;28;20324;-59
2021/10/10 02:02:46;;;;;;;17.92;9.55;;;5.20;99.90;;;;;;5047159;28;20124;-61
2021/10/10 02:05:12;;;;;;;17.95;9.55;;;5.10;99.90;;;;;;5047368;28;20037;-61
2021/10/10 02:07:38;;;;;;;18.50;9.32;;;5.20;99.90;;;;;;5048164;28;20508;-62
2021/10/10 02:10:05;;;;;;;12.25;7.70;;;5.20;99.90;;;;;;5045412;28;20041;-62
2021/10/10 02:12:31;;;;;;;19.60;9.00;;;5.20;99.90;;;;;;5045022;28;20063;-62
2021/10/10 02:14:57;;;;;;;14.23;8.80;;;5.30;99.90;;;;;;5047345;28;20492;-61
2021/10/10 02:17:22;;;;;;;;;;;5.20;99.90;;;;;;5030731;28;20047;-62
2021/10/10 02:19:48;;;;;;;16.92;7.90;;;5.10;99.90;;;;;;5047806;28;19920;-62
2021/10/10 02:22:13;;;;;;;;;;;5.00;99.90;;;;;;5046259;28;20037;-63
2021/10/10 02:24:39;;;;;;;15.88;9.13;;;5.00;99.90;;;;;;5052805;28;19955;-62
2021/10/10 02:27:04;;;;;;;;;;;5.00;99.90;;;;;;5064743;28;20059;-62
2021/10/10 02:29:31;;;;;;;17.08;7.60;;;4.90;99.90;;;;;;5053983;28;20011;-61
2021/10/10 02:31:57;;;;;;;23.40;7.85;;;5.00;99.90;;;;;;5043119;28;20068;-61
2021/10/10 02:34:23;;;;;;;16.02;7.38;;;5.00;99.90;;;;;;5062440;28;20566;-60
2021/10/10 02:36:49;;;;;;;16.05;7.68;;;5.10;99.90;;;;;;5047214;28;20044;-60
2021/10/10 02:39:14;;;;;;;12.82;7.07;;;5.10;99.90;;;;;;5047434;28;20697;-62
2021/10/10 02:41:40;;;;;;;;;;;5.20;99.90;;;;;;5048224;28;20099;-63
2021/10/10 02:44:06;;;;;;;13.63;7.53;;;5.20;99.90;;;;;;5049190;28;19920;-64
2021/10/10 02:46:31;;;;;;;14.15;7.70;;;5.10;99.90;;;;;;5048843;28;20041;-63
2021/10/10 02:48:57;;;;;;;;;;;5.00;99.90;;;;;;5049490;28;20064;-65
2021/10/10 02:51:22;;;;;;;15.38;6.75;;;5.00;99.90;;;;;;5047078;28;19971;-64
2021/10/10 02:53:48;;;;;;;;;;;5.10;99.90;;;;;;5048866;28;20137;-65
2021/10/10 02:56:14;;;;;;;17.85;7.82;;;5.00;99.90;;;;;;5047600;28;19955;-63
2021/10/10 02:58:42;;;;;;;;;;;4.80;99.90;;;;;;5049087;28;20329;-64
2021/10/10 03:01:09;;;;;;;17.48;8.95;;;4.80;99.90;;;;;;5038884;28;19920;-64
2021/10/10 03:03:34;;;;;;;12.23;7.65;;;4.70;99.90;;;;;;5048932;28;20061;-63
2021/10/10 03:06:00;;;;;;;16.30;7.50;;;4.60;99.90;;;;;;5048733;28;20114;-64
2021/10/10 03:08:26;;;;;;;15.93;8.07;;;4.60;99.90;;;;;;5047840;28;20123;-65
2021/10/10 03:10:52;;;;;;;14.85;7.30;;;4.60;99.90;;;;;;5046941;28;20048;-66
2021/10/10 03:13:18;;;;;;;10.80;6.07;;;4.60;99.90;;;;;;5048503;28;20044;-65
2021/10/10 03:15:44;;;;;;;12.45;6.75;;;4.60;99.90;;;;;;5062965;28;20040;-63
2021/10/10 03:18:09;;;;;;;12.50;6.15;;;4.70;99.90;;;;;;5048927;28;20128;-64
2021/10/10 03:20:35;;;;;;;14.55;7.85;;;4.70;99.90;;;;;;5051708;28;20187;-65
2021/10/10 03:23:00;;;;;;;12.60;7.38;;;4.70;99.90;;;;;;5049633;28;20091;-64
2021/10/10 03:25:26;;;;;;;;;;;4.60;99.90;;;;;;5048870;28;20045;-63
2021/10/10 03:27:52;;;;;;;11.75;6.32;;;4.50;99.90;;;;;;5047297;28;19916;-66
2021/10/10 03:30:17;;;;;;;;;;;4.60;99.90;;;;;;5046799;28;20076;-64
2021/10/10 03:32:43;;;;;;;16.13;7.35;;;4.60;99.90;;;;;;5046221;28;19916;-62
2021/10/10 03:35:09;;;;;;;;;;;4.50;99.90;;;;;;5047079;28;20098;-63
2021/10/10 03:37:35;;;;;;;12.07;6.22;;;4.50;99.90;;;;;;5044691;28;19916;-63
2021/10/10 03:40:11;;;;;;;15.77;6.68;;;4.50;99.90;;;;;;5045691;28;20041;-62
2021/10/10 03:42:38;;;;;;;11.48;6.43;;;4.40;99.90;;;;;;5045685;28;20071;-62
2021/10/10 03:45:06;;;;;;;14.50;7.22;;;4.30;99.90;;;;;;5045723;28;20048;-63
2021/10/10 03:47:32;;;;;;;12.23;6.80;;;4.30;99.90;;;;;;5045587;28;20132;-62
2021/10/10 03:49:57;;;;;;;16.20;7.30;;;4.20;99.90;;;;;;5046253;28;20148;-62
2021/10/10 03:52:23;;;;;;;14.60;6.47;;;4.20;99.90;;;;;;5044636;28;20123;-62
2021/10/10 03:57:22;;;;;;;14.00;6.45;;;4.20;99.90;;;;;;5049893;28;20384;-62
2021/10/10 03:59:52;;;;;;;14.23;6.15;;;4.20;99.90;;;;;;5042989;28;20049;-63
2021/10/10 04:02:18;;;;;;;13.80;6.47;;;4.20;99.90;;;;;;5047424;28;20425;-62
2021/10/10 04:04:44;;;;;;;12.80;6.05;;;4.10;99.90;;;;;;5049849;28;20118;-62
2021/10/10 04:07:09;;;;;;;13.55;7.15;;;4.10;99.90;;;;;;5044222;28;20713;-63
2021/10/10 04:09:35;;;;;;;18.77;7.00;;;4.10;99.90;;;;;;5050092;28;20127;-62
2021/10/10 04:12:00;;;;;;;12.77;6.53;;;4.00;99.90;;;;;;5047976;28;20045;-62
2021/10/10 04:14:26;;;;;;;13.27;6.57;;;4.00;99.90;;;;;;5049098;28;20560;-63
2021/10/10 04:16:51;;;;;;;15.45;5.47;;;4.00;99.90;;;;;;5048374;28;20114;-64
2021/10/10 04:19:17;;;;;;;12.82;6.70;;;4.00;99.90;;;;;;5048606;28;20040;-62
2021/10/10 04:21:43;;;;;;;13.82;6.70;;;4.10;99.90;;;;;;5046611;28;20083;-63
2021/10/10 04:24:08;;;;;;;11.57;5.90;;;4.10;99.90;;;;;;5048991;28;20137;-64
2021/10/10 04:26:34;;;;;;;13.50;6.72;;;4.20;99.90;;;;;;5047120;28;20151;-62
2021/10/10 04:28:59;;;;;;;;;;;4.20;99.90;;;;;;5049081;28;20033;-63
2021/10/10 04:31:25;;;;;;;12.38;5.68;;;4.20;99.90;;;;;;5047065;28;20312;-62
2021/10/10 04:33:50;;;;;;;;;;;4.20;99.90;;;;;;5048844;28;20040;-63
2021/10/10 04:36:16;;;;;;;93.70;40.97;;;4.10;99.90;;;;;;5047233;28;19940;-63
2021/10/10 04:38:41;;;;;;;;;;;4.20;99.90;;;;;;5048255;28;20124;-62
2021/10/10 04:41:07;;;;;;;40.03;16.13;;;4.20;99.90;;;;;;5046843;28;20556;-62
2021/10/10 04:43:32;;;;;;;24.58;10.70;;;4.20;99.90;;;;;;5048312;28;20401;-63
2021/10/10 04:45:58;;;;;;;16.80;7.35;;;4.20;99.90;;;;;;5046442;28;20130;-62
2021/10/10 04:48:24;;;;;;;11.95;6.20;;;4.30;99.90;;;;;;5047478;28;20036;-63
2021/10/10 04:50:49;;;;;;;11.00;5.72;;;4.20;99.90;;;;;;5047518;28;20037;-64
2021/10/10 04:53:15;;;;;;;17.15;6.45;;;4.20;99.90;;;;;;5049818;28;20040;-65
2021/10/10 04:55:40;;;;;;;14.75;7.93;;;4.20;99.90;;;;;;5049862;28;20045;-64
2021/10/10 04:58:06;;;;;;;26.40;12.05;;;4.10;99.90;;;;;;5048566;28;20067;-63
2021/10/10 05:00:32;;;;;;;26.83;11.40;;;4.00;99.90;;;;;;5039223;28;20037;-63
2021/10/10 05:02:57;;;;;;;27.85;12.52;;;4.00;99.90;;;;;;5048490;28;20094;-63
2021/10/10 05:05:23;;;;;;;;;;;4.00;99.90;;;;;;5047119;28;20472;-63
2021/10/10 05:07:48;;;;;;;14.82;6.53;;;4.00;99.90;;;;;;5047460;28;19994;-63
2021/10/10 05:10:14;;;;;;;12.65;5.50;;;3.90;99.90;;;;;;5062916;28;20086;-64
2021/10/10 05:12:39;;;;;;;12.07;6.30;;;4.00;99.90;;;;;;5048929;28;20064;-64
2021/10/10 05:15:06;;;;;;;10.70;5.30;;;3.90;99.90;;;;;;5048076;28;20096;-64
2021/10/10 05:17:31;;;;;;;12.82;5.85;;;3.90;99.90;;;;;;5047276;28;20504;-65
2021/10/10 05:19:57;;;;;;;11.05;4.97;;;3.90;99.90;;;;;;5047939;28;20041;-64
2021/10/10 05:22:23;;;;;;;;;;;3.90;99.90;;;;;;5046776;28;20049;-65
2021/10/10 05:24:50;;;;;;;9.18;4.68;;;3.80;99.90;;;;;;5047774;28;19927;-64
2021/10/10 05:27:16;;;;;;;11.25;5.13;;;3.90;99.90;;;;;;5049860;28;20512;-64
2021/10/10 05:29:42;;;;;;;11.60;4.78;;;3.90;99.90;;;;;;5051882;28;20048;-63
2021/10/10 05:32:08;;;;;;;;;;;3.90;99.90;;;;;;5064186;28;20040;-62
2021/10/10 05:34:33;;;;;;;9.52;5.03;;;3.80;99.90;;;;;;5048830;28;20388;-63
2021/10/10 05:36:59;;;;;;;12.02;5.70;;;3.80;99.90;;;;;;5048736;28;20574;-63
2021/10/10 05:39:24;;;;;;;8.73;4.90;;;3.70;99.90;;;;;;5047821;28;20558;-61
2021/10/10 05:41:50;;;;;;;;;;;3.70;99.90;;;;;;5047898;28;20036;-62
2021/10/10 05:44:16;;;;;;;10.43;5.15;;;3.70;99.90;;;;;;5046859;28;19916;-61
2021/10/10 05:46:41;;;;;;;11.07;4.60;;;3.60;99.90;;;;;;5038504;28;20044;-61
2021/10/10 05:49:07;;;;;;;11.52;5.10;;;3.60;99.90;;;;;;5045905;28;20061;-62
2021/10/10 05:51:33;;;;;;;17.80;5.28;;;3.60;99.90;;;;;;5045552;28;20048;-60
2021/10/10 05:53:59;;;;;;;;;;;3.70;99.90;;;;;;5047070;28;20077;-61
2021/10/10 05:56:25;;;;;;;16.80;7.97;;;3.70;99.90;;;;;;5047562;28;19939;-60
2021/10/10 05:58:56;;;;;;;57.03;23.75;;;3.70;99.90;;;;;;5045436;28;20060;-61
2021/10/10 06:01:22;;;;;;;21.02;9.18;;;3.70;99.90;;;;;;5033675;28;20048;-61
2021/10/10 06:03:48;;;;;;;10.20;4.95;;;3.70;99.90;;;;;;5046740;28;20179;-63
2021/10/10 06:06:14;;;;;;;20.08;10.27;;;3.60;99.90;;;;;;5046702;28;20556;-63
2021/10/10 06:08:39;;;;;;;11.07;6.03;;;3.60;99.90;;;;;;5048286;28;20033;-62
2021/10/10 06:11:05;;;;;;;9.60;5.05;;;3.60;99.90;;;;;;5045243;28;20094;-63
2021/10/10 06:13:32;;;;;;;10.20;5.47;;;3.60;99.90;;;;;;5043562;28;20033;-63
2021/10/10 06:15:57;;;;;;;9.07;4.35;;;3.60;99.90;;;;;;5045721;28;20044;-63
2021/10/10 06:18:24;;;;;;;8.05;4.35;;;3.50;99.90;;;;;;5046105;28;20045;-61
2021/10/10 06:20:50;;;;;;;8.18;3.80;;;3.50;99.90;;;;;;5047184;28;20469;-64
2021/10/10 06:23:16;;;;;;;12.30;4.90;;;3.40;99.90;;;;;;5047765;28;20040;-63
2021/10/10 06:25:42;;;;;;;9.05;4.60;;;3.50;99.90;;;;;;5048150;28;20049;-64
2021/10/10 06:28:08;;;;;;;10.60;5.15;;;3.60;99.90;;;;;;5048387;28;20401;-64
2021/10/10 06:30:33;;;;;;;10.95;6.20;;;3.50;99.90;;;;;;5044925;28;20039;-62
2021/10/10 06:32:59;;;;;;;12.45;6.03;;;3.60;99.90;;;;;;5061967;28;20420;-60
2021/10/10 06:35:24;;;;;;;;;;;3.80;99.90;;;;;;5049541;28;20033;-63
2021/10/10 06:37:50;;;;;;;11.43;5.25;;;3.90;99.90;;;;;;5048763;28;19928;-63
2021/10/10 06:40:15;;;;;;;14.85;5.78;;;4.20;99.90;;;;;;5048721;28;20551;-62
2021/10/10 06:42:42;;;;;;;;;;;4.20;99.90;;;;;;5047351;28;20040;-63
2021/10/10 06:45:08;;;;;;;13.43;5.10;;;4.40;99.90;;;;;;5048897;28;20038;-64
2021/10/10 06:47:36;;;;;;;;;;;4.40;99.90;;;;;;5032661;28;20371;-64
2021/10/10 06:50:02;;;;;;;9.77;5.30;;;4.50;99.90;;;;;;5034099;28;20281;-61
2021/10/10 06:52:27;;;;;;;10.93;5.38;;;4.50;99.90;;;;;;5032345;28;20103;-64
2021/10/10 06:54:53;;;;;;;15.45;5.65;;;4.50;99.90;;;;;;5031201;28;20050;-62
2021/10/10 06:57:19;;;;;;;;;;;4.50;99.90;;;;;;5028747;28;20091;-64
2021/10/10 06:59:44;;;;;;;12.65;4.40;;;4.50;99.90;;;;;;5043257;28;19927;-64
2021/10/10 07:02:11;;;;;;;;;;;4.40;99.90;;;;;;5046738;28;20055;-64
2021/10/10 07:04:37;;;;;;;10.02;4.35;;;4.60;99.90;;;;;;5049105;28;20034;-64
2021/10/10 07:07:03;;;;;;;;;;;4.70;99.90;;;;;;5048549;28;20564;-64
2021/10/10 07:09:28;;;;;;;8.15;4.13;;;4.60;99.90;;;;;;5048601;28;20023;-64
2021/10/10 07:11:54;;;;;;;;;;;4.70;99.90;;;;;;5047607;28;20044;-64
2021/10/10 07:14:19;;;;;;;9.88;3.90;;;4.70;99.90;;;;;;5051358;28;19917;-64
2021/10/10 07:16:45;;;;;;;;;;;4.60;99.90;;;;;;5051768;28;20069;-64
2021/10/10 07:19:11;;;;;;;7.53;4.00;;;4.60;99.90;;;;;;5052214;28;19916;-63
2021/10/10 07:26:34;;;;;;;29.17;15.23;;;4.90;99.90;;;;;;5054008;28;20041;-64
2021/10/10 07:28:59;;;;;;;21.40;10.60;;;5.10;99.90;;;;;;5055461;28;20047;-64
2021/10/10 07:31:25;;;;;;;;;;;5.20;99.90;;;;;;5055016;28;20044;-64
2021/10/10 07:33:51;;;;;;;40.72;14.57;;;5.30;99.90;;;;;;5057104;28;20293;-63
2021/10/10 07:36:17;;;;;;;;;;;5.30;99.90;;;;;;5055944;28;20052;-63
2021/10/10 07:38:42;;;;;;;12.00;5.60;;;5.30;99.90;;;;;;5055619;28;20399;-62
2021/10/10 07:41:08;;;;;;;9.40;4.22;;;5.40;99.90;;;;;;5050099;28;20049;-62
2021/10/10 07:43:34;;;;;;;67.20;37.97;;;5.50;99.90;;;;;;5052178;28;20037;-61
2021/10/10 07:46:07;;;;;;;27.48;11.77;;;5.60;99.90;;;;;;5051190;28;20045;-62
2021/10/10 07:48:37;;;;;;;18.10;8.18;;;5.70;99.90;;;;;;5051701;28;20040;-64
2021/10/10 07:51:04;;;;;;;28.00;12.80;;;5.80;99.90;;;;;;5050807;28;20041;-63
2021/10/10 07:53:30;;;;;;;13.55;6.15;;;5.90;99.90;;;;;;5051300;28;20040;-64
2021/10/10 07:55:55;;;;;;;9.48;4.75;;;6.00;99.90;;;;;;5051474;28;20127;-63
2021/10/10 07:58:21;;;;;;;;;;;6.20;99.90;;;;;;5051915;28;20125;-63
2021/10/10 08:00:46;;;;;;;7.80;3.90;;;6.30;99.90;;;;;;5049061;28;20380;-63
2021/10/10 08:03:12;;;;;;;;;;;6.50;99.90;;;;;;5053569;28;20844;-65
2021/10/10 08:05:40;;;;;;;7.53;3.70;;;6.70;99.90;;;;;;5055009;28;20384;-64
2021/10/10 08:08:06;;;;;;;6.15;3.75;;;6.80;99.90;;;;;;5051010;28;20033;-64
2021/10/10 08:10:31;;;;;;;;;;;6.90;99.90;;;;;;5050195;28;20047;-63
2021/10/10 08:12:57;;;;;;;9.60;3.28;;;7.00;99.90;;;;;;5050429;28;19920;-64
2021/10/10 08:15:23;;;;;;;;;;;7.20;99.90;;;;;;5051210;28;20552;-64
2021/10/10 08:17:48;;;;;;;9.98;3.60;;;7.30;99.90;;;;;;5050051;28;20277;-64
2021/10/10 08:20:14;;;;;;;;;;;7.50;99.90;;;;;;5056490;28;20118;-64
2021/10/10 08:22:40;;;;;;;5.93;3.40;;;7.50;99.90;;;;;;5056176;28;19924;-64
2021/10/10 08:25:08;;;;;;;5.68;3.10;;;7.60;99.90;;;;;;5055335;28;20044;-65
2021/10/10 08:27:35;;;;;;;6.47;3.70;;;7.80;99.90;;;;;;5054687;28;20520;-63
2021/10/10 08:30:03;;;;;;;6.95;3.85;;;7.90;99.90;;;;;;5053451;28;20052;-65
2021/10/10 08:32:28;;;;;;;5.97;3.40;;;8.10;99.90;;;;;;5052993;28;20094;-64
2021/10/10 08:34:54;;;;;;;;;;;8.30;99.90;;;;;;5069365;28;20037;-64
2021/10/10 08:37:19;;;;;;;6.97;3.67;;;8.40;99.90;;;;;;5052227;28;20008;-65
2021/10/10 08:39:45;;;;;;;;;;;8.60;99.90;;;;;;5053112;28;20055;-63
2021/10/10 08:42:12;;;;;;;11.75;4.95;;;8.80;99.90;;;;;;5050927;28;20066;-64
2021/10/10 08:44:43;;;;;;;7.88;4.35;;;8.90;99.90;;;;;;5052419;28;20477;-63
2021/10/10 08:47:14;;;;;;;10.55;4.85;;;9.20;99.90;;;;;;5051295;28;20048;-63
2021/10/10 08:49:41;;;;;;;21.63;10.40;;;9.40;99.90;;;;;;5067069;28;20033;-64
2021/10/10 08:52:07;;;;;;;14.85;7.22;;;9.60;99.90;;;;;;5051337;28;20124;-63
2021/10/10 08:54:33;;;;;;;10.65;5.38;;;9.80;99.90;;;;;;5051744;28;20085;-65
2021/10/10 08:57:00;;;;;;;9.23;4.68;;;10.00;99.90;;;;;;5052174;28;20107;-64
2021/10/10 08:59:27;;;;;;;13.77;5.55;;;10.20;99.90;;;;;;5047935;28;20076;-64
2021/10/10 09:01:57;;;;;;;8.55;4.63;;;10.50;99.90;;;;;;5047467;28;20400;-64
2021/10/10 09:04:23;;;;;;;9.77;4.45;;;10.70;99.90;;;;;;5046775;28;20049;-64
2021/10/10 09:06:48;;;;;;;;;;;10.90;99.90;;;;;;5050829;28;20152;-63
2021/10/10 09:09:30;;;;;;;13.52;5.30;;;11.00;99.10;;;;;;5051949;28;19916;-64
2021/10/10 09:12:06;;;;;;;11.38;4.85;;;11.10;97.00;;;;;;5052746;28;20041;-65
2021/10/10 09:14:49;;;;;;;10.45;5.40;;;11.20;96.00;;;;;;5051005;28;20089;-64
2021/10/10 09:17:22;;;;;;;8.30;4.65;;;11.40;96.00;;;;;;5044380;28;20055;-63
2021/10/10 09:19:54;;;;;;;9.18;4.97;;;11.60;96.30;;;;;;5044865;28;20584;-64
2021/10/10 09:22:21;;;;;;;10.73;4.63;;;11.70;93.90;;;;;;5039995;28;20128;-63
2021/10/10 09:24:51;;;;;;;10.63;4.50;;;11.80;94.80;;;;;;5049853;28;20192;-63
2021/10/10 09:27:19;;;;;;;12.43;4.93;;;12.00;94.20;;;;;;5049998;28;20121;-62
2021/10/10 09:29:47;;;;;;;11.55;4.57;;;12.10;92.10;;;;;;5050286;28;20396;-64
2021/10/10 09:32:25;;;;;;;8.18;4.53;;;12.10;92.90;;;;;;5046922;28;20607;-64
2021/10/10 09:34:51;;;;;;;10.25;4.50;;;12.00;91.90;;;;;;5048395;28;20373;-63
2021/10/10 09:37:22;;;;;;;7.40;4.75;;;12.00;93.40;;;;;;5048997;28;20122;-63
2021/10/10 09:40:00;;;;;;;8.98;4.50;;;11.90;92.80;;;;;;5048745;28;20436;-62
2021/10/10 09:42:35;;;;;;;11.85;4.63;;;11.90;91.60;;;;;;5040853;28;20053;-63
2021/10/10 09:45:29;;;;;;;10.32;4.10;;;11.80;92.20;;;;;;5040932;28;20048;-62
2021/10/10 09:48:00;;;;;;;7.95;4.40;;;11.80;93.10;;;;;;5033980;28;20057;-61
2021/10/10 09:50:29;;;;;;;7.68;4.10;;;11.70;93.70;;;;;;5045002;28;20052;-63
2021/10/10 09:53:07;;;;;;;8.00;4.00;;;11.70;93.90;;;;;;5029488;28;20506;-63
2021/10/10 09:55:35;;;;;;;9.40;3.92;;;11.60;93.80;;;;;;5043629;28;20071;-63
2021/10/10 09:58:01;;;;;;;9.32;4.75;;;11.50;94.60;;;;;;5043440;28;20087;-63
2021/10/10 10:00:30;;;;;;;13.13;3.92;;;11.40;96.10;;;;;;5044099;28;20443;-62
2021/10/10 10:03:09;;;;;;;6.43;3.90;;;11.40;97.10;;;;;;5049227;28;20033;-63
2021/10/10 10:05:36;;;;;;;12.13;4.55;;;11.30;97.70;;;;;;5034875;28;21443;-63
2021/10/10 10:08:03;;;;;;;10.60;4.03;;;11.30;97.50;;;;;;5043952;28;20048;-63
2021/10/10 10:10:31;;;;;;;7.72;3.95;;;11.30;97.70;;;;;;5047035;28;20839;-62
2021/10/10 10:13:00;;;;;;;6.97;4.07;;;11.30;97.70;;;;;;5048231;28;20029;-64
2021/10/10 10:15:30;;;;;;;14.68;7.13;;;11.30;97.90;;;;;;5048044;28;20049;-62
2021/10/10 10:17:57;;;;;;;9.95;6.03;;;11.40;98.10;;;;;;5047593;28;20524;-62
2021/10/10 10:20:28;;;;;;;9.07;5.15;;;11.60;98.80;;;;;;5047219;28;20136;-62
2021/10/10 10:22:55;;;;;;;9.15;4.93;;;11.70;96.80;;;;;;5047451;28;20038;-63
2021/10/10 10:25:23;;;;;;;8.57;4.00;;;11.80;96.70;;;;;;5048527;28;20114;-63
2021/10/10 10:27:50;;;;;;;9.48;4.20;;;11.90;97.30;;;;;;5048908;28;20048;-62
2021/10/10 10:30:18;;;;;;;14.95;5.00;;;12.00;97.10;;;;;;5047378;28;20109;-64
2021/10/10 10:32:45;;;;;;;15.88;7.35;;;12.10;96.60;;;;;;5049813;28;20761;-64
2021/10/10 10:35:16;;;;;;;12.40;4.82;;;12.00;96.80;;;;;;5049651;28;20044;-63
2021/10/10 10:37:42;;;;;;;16.05;4.97;;;12.00;95.50;;;;;;5049204;28;20682;-65
2021/10/10 10:40:20;;;;;;;;;;;12.00;96.10;;;;;;5049774;28;20095;-65
2021/10/10 10:42:46;;;;;;;;;;;12.00;95.30;;;;;;5050269;28;20000;-63
2021/10/10 10:45:30;;;;;;;9.75;4.32;;;12.00;95.60;;;;;;5047676;28;19921;-63
2021/10/10 10:47:58;;;;;;;9.68;3.90;;;12.00;95.50;;;;;;5049229;28;20053;-63
2021/10/10 10:50:34;;;;;;;10.73;5.05;;;12.00;95.20;;;;;;5047765;28;20041;-63
2021/10/10 10:53:04;;;;;;;14.02;6.43;;;12.00;95.90;;;;;;5048627;28;20048;-63
2021/10/10 10:55:31;;;;;;;11.52;5.50;;;12.10;95.90;;;;;;5048555;28;20049;-63
2021/10/10 10:57:58;;;;;;;17.90;8.52;;;12.10;95.50;;;;;;5047691;28;20082;-64
2021/10/10 11:00:28;;;;;;;14.80;6.43;;;12.30;94.90;;;;;;5037104;28;20049;-62
2021/10/10 11:03:06;;;;;;;18.23;6.80;;;12.40;93.70;;;;;;5048577;28;20036;-63
2021/10/10 11:05:39;;;;;;;13.25;5.68;;;12.50;93.40;;;;;;5048212;28;20042;-63
2021/10/10 11:08:27;;;;;;;10.55;5.65;;;12.60;94.20;;;;;;5046412;28;20132;-62
2021/10/10 11:11:24;;;;;;;10.30;4.85;;;12.70;93.40;;;;;;5046123;28;20047;-63
2021/10/10 11:13:56;;;;;;;9.20;5.20;;;12.80;93.90;;;;;;5047727;28;20033;-63
2021/10/10 11:16:25;;;;;;;11.98;4.55;;;12.90;93.00;;;;;;5046189;28;20288;-64
2021/10/10 11:19:12;;;;;;;10.45;5.55;;;12.90;92.70;;;;;;5047030;28;20587;-63
2021/10/10 11:21:43;;;;;;;9.73;4.95;;;12.80;91.60;;;;;;5046271;28;20041;-63
2021/10/10 11:24:21;;;;;;;9.40;5.43;;;12.80;92.20;;;;;;5046510;28;20075;-63
2021/10/10 11:26:49;;;;;;;10.13;4.72;;;12.90;92.60;;;;;;5045560;28;20052;-64
2021/10/10 11:29:18;;;;;;;10.48;5.00;;;12.90;92.30;;;;;;5046919;28;20087;-63
2021/10/10 11:31:45;;;;;;;10.73;5.30;;;12.90;92.40;;;;;;5044870;28;20061;-63
2021/10/10 11:34:13;;;;;;;12.77;5.88;;;13.10;92.60;;;;;;5029562;28;20051;-63
2021/10/10 11:36:55;;;;;;;13.45;6.63;;;13.20;92.00;;;;;;5028637;28;20088;-63
2021/10/10 11:39:22;;;;;;;9.52;5.00;;;13.20;92.20;;;;;;5046972;28;20114;-63
2021/10/10 11:41:58;;;;;;;10.77;5.55;;;13.30;92.00;;;;;;5062871;28;20076;-63
2021/10/10 11:44:34;;;;;;;10.57;5.22;;;13.50;92.40;;;;;;5046158;28;20509;-60
2021/10/10 11:47:02;;;;;;;;;;;13.60;91.40;;;;;;5062800;28;20052;-62
2021/10/10 11:49:37;;;;;;;12.70;5.38;;;13.60;91.80;;;;;;5046617;28;19923;-63
2021/10/10 11:52:24;;;;;;;13.43;4.97;;;13.50;91.00;;;;;;5046190;28;20045;-62
2021/10/10 11:57:39;;;;;;;8.13;4.72;;;13.20;90.30;;;;;;5047629;28;20135;-63
2021/10/10 12:00:07;;;;;;;;;;;13.30;90.40;;;;;;5043923;28;20037;-62
2021/10/10 12:02:41;;;;;;;13.45;5.50;;;13.30;91.20;;;;;;5046679;28;20062;-63
2021/10/10 12:05:09;;;;;;;11.13;4.50;;;13.40;91.40;;;;;;5047389;28;20088;-63
2021/10/10 12:07:36;;;;;;;6.82;4.10;;;13.40;90.70;;;;;;5048383;28;20049;-64
2021/10/10 12:10:03;;;;;;;7.72;4.22;;;13.40;92.70;;;;;;5046364;28;20145;-63
2021/10/10 12:12:29;;;;;;;8.95;4.38;;;13.20;93.80;;;;;;5046601;28;20120;-62
2021/10/10 12:14:56;;;;;;;;;;;13.20;94.10;;;;;;5050378;28;20045;-62
2021/10/10 12:17:26;;;;;;;8.50;4.70;;;13.30;94.00;;;;;;5063013;28;19976;-62
2021/10/10 12:19:53;;;;;;;10.55;4.28;;;13.40;94.40;;;;;;5050912;28;20037;-62
2021/10/10 12:22:19;;;;;;;11.23;4.60;;;13.40;90.40;;;;;;5049552;28;20041;-62
2021/10/10 12:24:46;;;;;;;;;;;13.50;89.10;;;;;;5050798;28;20462;-63
2021/10/10 12:27:22;;;;;;;7.10;4.63;;;13.50;90.20;;;;;;5069553;23;19993;-64
2021/10/10 12:29:48;;;;;;;9.90;5.05;;;13.40;90.50;;;;;;5070097;28;20279;-63
2021/10/10 12:32:24;;;;;;;;;;;13.40;89.80;;;;;;5068737;28;20041;-63
2021/10/10 12:35:04;;;;;;;15.70;5.50;;;13.40;86.60;;;;;;5070040;28;19924;-63
2021/10/10 12:37:31;;;;;;;10.95;4.05;;;13.50;90.00;;;;;;5069666;28;20629;-63
2021/10/10 12:39:56;;;;;;;12.75;4.80;;;13.40;90.90;;;;;;5069370;28;20044;-63
2021/10/10 12:42:22;;;;;;;;;;;13.30;87.20;;;;;;5069745;28;20055;-63
2021/10/10 12:45:09;;;;;;;7.07;3.97;;;13.40;90.50;;;;;;5070699;28;20402;-63
2021/10/10 12:47:35;;;;;;;11.07;5.18;;;13.30;91.60;;;;;;5073798;28;20174;-63
2021/10/10 12:50:00;;;;;;;;;;;13.30;92.20;;;;;;5070580;28;20517;-63
2021/10/10 12:52:38;;;;;;;8.82;5.05;;;13.30;92.10;;;;;;5070182;28;19924;-63
2021/10/10 12:55:06;;;;;;;23.58;6.38;;;13.30;91.60;;;;;;5069354;28;20048;-63
2021/10/10 12:57:37;;;;;;;14.30;5.55;;;13.30;91.30;;;;;;5070560;28;20064;-64
2021/10/10 13:00:04;;;;;;;11.20;6.07;;;13.30;92.50;;;;;;5069603;28;20045;-65
2021/10/10 13:02:30;;;;;;;9.50;5.70;;;13.40;92.80;;;;;;5069237;28;20044;-63
2021/10/10 13:04:56;;;;;;;;;;;13.50;93.30;;;;;;5069745;28;20047;-63
2021/10/10 13:07:21;;;;;;;9.63;5.63;;;13.50;93.50;;;;;;5069044;28;20415;-63
2021/10/10 13:09:47;;;;;;;;;;;13.60;91.80;;;;;;5070043;28;20599;-63
2021/10/10 13:12:12;;;;;;;12.20;4.93;;;13.70;92.10;;;;;;5067485;28;19920;-63
2021/10/10 13:14:38;;;;;;;;;;;13.70;91.10;;;;;;5069341;28;20086;-62